UUWW/VKO METAR and TAF weather

Enter ICAO airport designator
Station Type Date Time Source
UUWW METAR 2021/03/08 15:00 UTC NOAA

UUWW 081500Z 30003MPS 9999 SCT033 M07/M12 Q1004 R01/450540 NOSIG


Station Type Date Time Source
UUWW Decoded METAR 2021/03/08 15:00 UTC NOAA

Moscow / Vnukovo , Russia (UUWW) 55-39N 037-16E
Mar 08, 2021 - 10:00 AM EST / 2021.03.08 1500 UTC
Wind: from the WNW (300 degrees) at 7 MPH (6 KT):0
Visibility: greater than 7 mile(s):0
Sky conditions: partly cloudy
Temperature: 19 F (-7 C)
Windchill: 10 F (-12 C):1
Dew Point: 10 F (-12 C)
Relative Humidity: 67%
Pressure (altimeter): 29.65 in. Hg (1004 hPa)
ob: UUWW 081500Z 30003MPS 9999 SCT033 M07/M12 Q1004 R01/450540 NOSIG
cycle: 15

Station Type Date Time Source
UUWW TAF 2021/03/08 15:21 UTC NOAA

TAF UUWW 081359Z 0815/0915 33005MPS 6000 -SN FEW007 BKN016 TXM07/0815Z TNM16/0906Z
TEMPO 0815/0824 1100 SHSN BKN015CB
TEMPO 0900/0915 2100 -SHSN BKN012CB

Example: see airport list